sensor_id;sensor_type;location;lat;lon;timestamp;temperature;humidity
13796;SHT30;40911;51.552;9.874;2022-07-04T00:04:02;18.14;75.55
13796;SHT30;40911;51.552;9.874;2022-07-04T00:06:24;18.01;75.81
13796;SHT30;40911;51.552;9.874;2022-07-04T00:08:46;18.10;75.53
13796;SHT30;40911;51.552;9.874;2022-07-04T00:11:07;18.02;75.91
13796;SHT30;40911;51.552;9.874;2022-07-04T00:13:29;18.26;75.24
13796;SHT30;40911;51.552;9.874;2022-07-04T00:15:51;17.89;76.17
13796;SHT30;40911;51.552;9.874;2022-07-04T00:18:12;17.98;75.85
13796;SHT30;40911;51.552;9.874;2022-07-04T00:20:35;17.86;76.23
13796;SHT30;40911;51.552;9.874;2022-07-04T00:22:57;18.02;75.69
13796;SHT30;40911;51.552;9.874;2022-07-04T00:25:18;17.70;76.89
13796;SHT30;40911;51.552;9.874;2022-07-04T00:27:40;17.91;76.02
13796;SHT30;40911;51.552;9.874;2022-07-04T00:30:02;17.94;75.90
13796;SHT30;40911;51.552;9.874;2022-07-04T00:32:24;17.81;76.22
13796;SHT30;40911;51.552;9.874;2022-07-04T00:34:46;17.93;76.07
13796;SHT30;40911;51.552;9.874;2022-07-04T00:37:09;17.87;76.19
13796;SHT30;40911;51.552;9.874;2022-07-04T00:39:30;18.00;75.78
13796;SHT30;40911;51.552;9.874;2022-07-04T00:41:52;17.96;75.83
13796;SHT30;40911;51.552;9.874;2022-07-04T00:44:14;18.08;75.55
13796;SHT30;40911;51.552;9.874;2022-07-04T00:46:36;17.94;75.91
13796;SHT30;40911;51.552;9.874;2022-07-04T00:48:58;17.83;76.39
13796;SHT30;40911;51.552;9.874;2022-07-04T00:51:20;17.62;76.97
13796;SHT30;40911;51.552;9.874;2022-07-04T00:53:44;17.50;77.51
13796;SHT30;40911;51.552;9.874;2022-07-04T00:56:06;17.38;77.91
13796;SHT30;40911;51.552;9.874;2022-07-04T00:58:27;17.25;78.17
13796;SHT30;40911;51.552;9.874;2022-07-04T01:00:49;17.24;78.19
13796;SHT30;40911;51.552;9.874;2022-07-04T01:03:11;17.25;78.02
13796;SHT30;40911;51.552;9.874;2022-07-04T01:05:32;17.18;78.14
13796;SHT30;40911;51.552;9.874;2022-07-04T01:07:54;17.22;78.13
13796;SHT30;40911;51.552;9.874;2022-07-04T01:10:17;17.15;78.14
13796;SHT30;40911;51.552;9.874;2022-07-04T01:12:38;17.14;78.28
13796;SHT30;40911;51.552;9.874;2022-07-04T01:15:00;17.15;78.28
13796;SHT30;40911;51.552;9.874;2022-07-04T01:17:22;17.26;77.83
13796;SHT30;40911;51.552;9.874;2022-07-04T01:19:43;17.31;77.51
13796;SHT30;40911;51.552;9.874;2022-07-04T01:22:07;17.31;77.77
13796;SHT30;40911;51.552;9.874;2022-07-04T01:24:28;17.40;77.53
13796;SHT30;40911;51.552;9.874;2022-07-04T01:26:50;16.66;80.00
13796;SHT30;40911;51.552;9.874;2022-07-04T01:29:11;16.78;79.35
13796;SHT30;40911;51.552;9.874;2022-07-04T01:31:33;16.81;79.48
13796;SHT30;40911;51.552;9.874;2022-07-04T01:33:54;16.68;79.96
13796;SHT30;40911;51.552;9.874;2022-07-04T01:36:16;16.76;79.46
13796;SHT30;40911;51.552;9.874;2022-07-04T01:38:39;16.68;79.92
13796;SHT30;40911;51.552;9.874;2022-07-04T01:41:00;16.81;79.38
13796;SHT30;40911;51.552;9.874;2022-07-04T01:43:22;16.83;79.30
13796;SHT30;40911;51.552;9.874;2022-07-04T01:45:44;16.76;79.42
13796;SHT30;40911;51.552;9.874;2022-07-04T01:48:06;16.87;78.88
13796;SHT30;40911;51.552;9.874;2022-07-04T01:50:28;16.80;79.25
13796;SHT30;40911;51.552;9.874;2022-07-04T01:52:50;16.87;79.19
13796;SHT30;40911;51.552;9.874;2022-07-04T01:55:13;16.52;80.18
13796;SHT30;40911;51.552;9.874;2022-07-04T01:57:34;16.59;80.44
13796;SHT30;40911;51.552;9.874;2022-07-04T01:59:56;16.63;80.00
13796;SHT30;40911;51.552;9.874;2022-07-04T02:02:35;16.73;79.75
13796;SHT30;40911;51.552;9.874;2022-07-04T02:04:57;16.67;79.82
13796;SHT30;40911;51.552;9.874;2022-07-04T02:07:18;16.28;81.21
13796;SHT30;40911;51.552;9.874;2022-07-04T02:09:40;16.39;80.69
13796;SHT30;40911;51.552;9.874;2022-07-04T02:12:03;16.47;80.88
13796;SHT30;40911;51.552;9.874;2022-07-04T02:14:42;16.45;81.05
13796;SHT30;40911;51.552;9.874;2022-07-04T02:17:04;16.33;80.90
13796;SHT30;40911;51.552;9.874;2022-07-04T02:19:26;16.49;80.58
13796;SHT30;40911;51.552;9.874;2022-07-04T02:21:48;16.39;80.43
13796;SHT30;40911;51.552;9.874;2022-07-04T02:24:09;16.25;81.03
13796;SHT30;40911;51.552;9.874;2022-07-04T02:26:31;16.19;81.41
13796;SHT30;40911;51.552;9.874;2022-07-04T02:28:54;16.25;81.33
13796;SHT30;40911;51.552;9.874;2022-07-04T02:31:16;16.11;81.60
13796;SHT30;40911;51.552;9.874;2022-07-04T02:33:37;16.09;81.76
13796;SHT30;40911;51.552;9.874;2022-07-04T02:35:59;15.94;82.16
13796;SHT30;40911;51.552;9.874;2022-07-04T02:38:20;15.87;82.55
13796;SHT30;40911;51.552;9.874;2022-07-04T02:40:42;16.09;81.77
13796;SHT30;40911;51.552;9.874;2022-07-04T02:43:03;16.07;81.62
13796;SHT30;40911;51.552;9.874;2022-07-04T02:45:26;16.21;81.09
13796;SHT30;40911;51.552;9.874;2022-07-04T02:47:48;16.15;81.20
13796;SHT30;40911;51.552;9.874;2022-07-04T02:50:09;16.11;80.91
13796;SHT30;40911;51.552;9.874;2022-07-04T02:52:31;16.02;81.80
13796;SHT30;40911;51.552;9.874;2022-07-04T02:54:52;15.84;81.84
13796;SHT30;40911;51.552;9.874;2022-07-04T02:57:15;16.01;81.16
13796;SHT30;40911;51.552;9.874;2022-07-04T02:59:38;15.82;81.39
13796;SHT30;40911;51.552;9.874;2022-07-04T03:02:00;15.67;82.66
13796;SHT30;40911;51.552;9.874;2022-07-04T03:04:22;15.73;82.39
13796;SHT30;40911;51.552;9.874;2022-07-04T03:06:44;15.56;83.36
13796;SHT30;40911;51.552;9.874;2022-07-04T03:09:05;15.56;82.82
13796;SHT30;40911;51.552;9.874;2022-07-04T03:11:27;15.61;82.46
13796;SHT30;40911;51.552;9.874;2022-07-04T03:13:48;15.43;82.65
13796;SHT30;40911;51.552;9.874;2022-07-04T03:16:10;15.13;84.49
13796;SHT30;40911;51.552;9.874;2022-07-04T03:18:33;15.52;83.23
13796;SHT30;40911;51.552;9.874;2022-07-04T03:20:54;15.19;84.73
13796;SHT30;40911;51.552;9.874;2022-07-04T03:23:16;15.09;85.38
13796;SHT30;40911;51.552;9.874;2022-07-04T03:25:38;15.44;84.03
13796;SHT30;40911;51.552;9.874;2022-07-04T03:28:00;15.47;83.92
13796;SHT30;40911;51.552;9.874;2022-07-04T03:30:22;15.57;83.72
13796;SHT30;40911;51.552;9.874;2022-07-04T03:32:43;15.52;84.01
13796;SHT30;40911;51.552;9.874;2022-07-04T03:35:07;15.66;83.50
13796;SHT30;40911;51.552;9.874;2022-07-04T03:37:28;15.56;83.60
13796;SHT30;40911;51.552;9.874;2022-07-04T03:39:50;15.57;83.80
13796;SHT30;40911;51.552;9.874;2022-07-04T03:42:11;15.59;84.16
13796;SHT30;40911;51.552;9.874;2022-07-04T03:44:33;15.64;83.71
13796;SHT30;40911;51.552;9.874;2022-07-04T03:46:54;15.71;83.54
13796;SHT30;40911;51.552;9.874;2022-07-04T03:49:16;15.70;83.80
13796;SHT30;40911;51.552;9.874;2022-07-04T03:51:39;15.64;83.83
13796;SHT30;40911;51.552;9.874;2022-07-04T03:54:00;15.69;83.45
13796;SHT30;40911;51.552;9.874;2022-07-04T03:56:22;15.67;83.42
13796;SHT30;40911;51.552;9.874;2022-07-04T03:58:44;15.64;83.76
13796;SHT30;40911;51.552;9.874;2022-07-04T04:01:09;15.78;83.21
13796;SHT30;40911;51.552;9.874;2022-07-04T04:03:30;15.81;82.98
13796;SHT30;40911;51.552;9.874;2022-07-04T04:06:09;15.71;83.81
13796;SHT30;40911;51.552;9.874;2022-07-04T04:08:32;15.91;82.95
13796;SHT30;40911;51.552;9.874;2022-07-04T04:10:54;15.92;82.79
13796;SHT30;40911;51.552;9.874;2022-07-04T04:13:16;15.85;83.15
13796;SHT30;40911;51.552;9.874;2022-07-04T04:15:37;15.61;84.04
13796;SHT30;40911;51.552;9.874;2022-07-04T04:17:59;15.77;83.77
13796;SHT30;40911;51.552;9.874;2022-07-04T04:20:20;16.02;82.94
13796;SHT30;40911;51.552;9.874;2022-07-04T04:22:42;16.02;83.02
13796;SHT30;40911;51.552;9.874;2022-07-04T04:25:06;15.91;83.40
13796;SHT30;40911;51.552;9.874;2022-07-04T04:27:27;15.85;83.72
13796;SHT30;40911;51.552;9.874;2022-07-04T04:29:49;15.87;83.75
13796;SHT30;40911;51.552;9.874;2022-07-04T04:32:10;15.81;84.04
13796;SHT30;40911;51.552;9.874;2022-07-04T04:34:32;16.02;83.29
13796;SHT30;40911;51.552;9.874;2022-07-04T04:36:54;16.19;82.86
13796;SHT30;40911;51.552;9.874;2022-07-04T04:39:16;16.38;82.17
13796;SHT30;40911;51.552;9.874;2022-07-04T04:41:39;16.50;81.79
13796;SHT30;40911;51.552;9.874;2022-07-04T04:44:00;16.50;81.91
13796;SHT30;40911;51.552;9.874;2022-07-04T04:46:22;16.55;82.24
13796;SHT30;40911;51.552;9.874;2022-07-04T04:48:43;16.57;82.09
13796;SHT30;40911;51.552;9.874;2022-07-04T04:51:05;16.76;81.71
13796;SHT30;40911;51.552;9.874;2022-07-04T04:53:27;16.64;82.45
13796;SHT30;40911;51.552;9.874;2022-07-04T04:55:48;16.76;82.05
13796;SHT30;40911;51.552;9.874;2022-07-04T04:58:11;16.76;82.30
13796;SHT30;40911;51.552;9.874;2022-07-04T05:00:33;16.76;82.54
13796;SHT30;40911;51.552;9.874;2022-07-04T05:02:54;16.95;81.90
13796;SHT30;40911;51.552;9.874;2022-07-04T05:05:16;16.93;82.15
13796;SHT30;40911;51.552;9.874;2022-07-04T05:07:37;17.10;81.53
13796;SHT30;40911;51.552;9.874;2022-07-04T05:09:59;17.05;81.51
13796;SHT30;40911;51.552;9.874;2022-07-04T05:12:21;16.91;81.89
13796;SHT30;40911;51.552;9.874;2022-07-04T05:14:43;16.77;82.21
13796;SHT30;40911;51.552;9.874;2022-07-04T05:17:05;17.08;81.44
13796;SHT30;40911;51.552;9.874;2022-07-04T05:19:27;17.11;80.93
13796;SHT30;40911;51.552;9.874;2022-07-04T05:21:49;17.28;80.85
13796;SHT30;40911;51.552;9.874;2022-07-04T05:24:11;17.29;80.90
13796;SHT30;40911;51.552;9.874;2022-07-04T05:26:32;17.56;80.49
13796;SHT30;40911;51.552;9.874;2022-07-04T05:28:54;17.86;79.69
13796;SHT30;40911;51.552;9.874;2022-07-04T05:31:18;18.00;79.72
13796;SHT30;40911;51.552;9.874;2022-07-04T05:33:40;18.07;79.03
13796;SHT30;40911;51.552;9.874;2022-07-04T05:36:02;18.07;78.84
13796;SHT30;40911;51.552;9.874;2022-07-04T05:38:24;18.17;78.43
13796;SHT30;40911;51.552;9.874;2022-07-04T05:40:45;18.28;78.59
13796;SHT30;40911;51.552;9.874;2022-07-04T05:43:07;18.14;78.43
13796;SHT30;40911;51.552;9.874;2022-07-04T05:45:28;18.26;77.79
13796;SHT30;40911;51.552;9.874;2022-07-04T05:47:51;18.36;77.62
13796;SHT30;40911;51.552;9.874;2022-07-04T05:50:13;18.41;77.81
13796;SHT30;40911;51.552;9.874;2022-07-04T05:52:34;18.29;77.76
13796;SHT30;40911;51.552;9.874;2022-07-04T05:54:56;18.05;77.59
13796;SHT30;40911;51.552;9.874;2022-07-04T05:57:17;18.36;76.85
13796;SHT30;40911;51.552;9.874;2022-07-04T05:59:39;18.60;76.34
13796;SHT30;40911;51.552;9.874;2022-07-04T06:02:00;18.30;77.26
13796;SHT30;40911;51.552;9.874;2022-07-04T06:04:23;18.49;76.01
13796;SHT30;40911;51.552;9.874;2022-07-04T06:06:46;18.52;76.10
13796;SHT30;40911;51.552;9.874;2022-07-04T06:09:07;18.80;75.11
13796;SHT30;40911;51.552;9.874;2022-07-04T06:11:29;18.70;75.59
13796;SHT30;40911;51.552;9.874;2022-07-04T06:13:51;18.46;75.76
13796;SHT30;40911;51.552;9.874;2022-07-04T06:16:12;18.97;74.89
13796;SHT30;40911;51.552;9.874;2022-07-04T06:18:34;18.90;75.13
13796;SHT30;40911;51.552;9.874;2022-07-04T06:20:57;19.30;74.51
13796;SHT30;40911;51.552;9.874;2022-07-04T06:23:18;19.04;74.73
13796;SHT30;40911;51.552;9.874;2022-07-04T06:25:40;19.46;73.58
13796;SHT30;40911;51.552;9.874;2022-07-04T06:28:01;19.25;73.03
13796;SHT30;40911;51.552;9.874;2022-07-04T06:30:24;19.16;73.66
13796;SHT30;40911;51.552;9.874;2022-07-04T06:32:47;18.66;74.64
13796;SHT30;40911;51.552;9.874;2022-07-04T06:35:08;19.18;73.80
13796;SHT30;40911;51.552;9.874;2022-07-04T06:37:49;19.28;73.90
13796;SHT30;40911;51.552;9.874;2022-07-04T06:40:11;19.30;73.52
13796;SHT30;40911;51.552;9.874;2022-07-04T06:42:32;19.35;73.73
13796;SHT30;40911;51.552;9.874;2022-07-04T06:44:54;19.51;73.88
13796;SHT30;40911;51.552;9.874;2022-07-04T06:47:16;19.84;73.30
13796;SHT30;40911;51.552;9.874;2022-07-04T06:49:37;19.82;72.80
13796;SHT30;40911;51.552;9.874;2022-07-04T06:51:59;20.07;72.76
13796;SHT30;40911;51.552;9.874;2022-07-04T06:54:22;20.13;71.36
13796;SHT30;40911;51.552;9.874;2022-07-04T06:56:44;19.99;72.27
13796;SHT30;40911;51.552;9.874;2022-07-04T06:59:05;20.00;72.02
13796;SHT30;40911;51.552;9.874;2022-07-04T07:01:27;20.28;71.34
13796;SHT30;40911;51.552;9.874;2022-07-04T07:03:48;20.49;70.84
13796;SHT30;40911;51.552;9.874;2022-07-04T07:06:10;19.94;72.39
13796;SHT30;40911;51.552;9.874;2022-07-04T07:08:31;20.11;71.11
13796;SHT30;40911;51.552;9.874;2022-07-04T07:10:55;20.03;70.79
13796;SHT30;40911;51.552;9.874;2022-07-04T07:13:16;20.21;70.51
13796;SHT30;40911;51.552;9.874;2022-07-04T07:15:38;20.22;70.45
13796;SHT30;40911;51.552;9.874;2022-07-04T07:17:59;20.25;70.03
13796;SHT30;40911;51.552;9.874;2022-07-04T07:20:21;20.31;69.94
13796;SHT30;40911;51.552;9.874;2022-07-04T07:22:43;20.96;69.39
13796;SHT30;40911;51.552;9.874;2022-07-04T07:25:05;20.76;69.26
13796;SHT30;40911;51.552;9.874;2022-07-04T07:27:28;20.73;68.71
13796;SHT30;40911;51.552;9.874;2022-07-04T07:29:49;21.14;67.59
13796;SHT30;40911;51.552;9.874;2022-07-04T07:32:11;20.71;67.74
13796;SHT30;40911;51.552;9.874;2022-07-04T07:34:34;20.71;66.55
13796;SHT30;40911;51.552;9.874;2022-07-04T07:36:55;21.02;66.28
13796;SHT30;40911;51.552;9.874;2022-07-04T07:39:17;21.83;63.95
13796;SHT30;40911;51.552;9.874;2022-07-04T07:41:38;21.37;64.14
13796;SHT30;40911;51.552;9.874;2022-07-04T07:44:02;21.37;63.09
13796;SHT30;40911;51.552;9.874;2022-07-04T07:46:24;21.62;62.62
13796;SHT30;40911;51.552;9.874;2022-07-04T07:48:45;21.66;61.32
13796;SHT30;40911;51.552;9.874;2022-07-04T07:51:09;20.65;62.46
13796;SHT30;40911;51.552;9.874;2022-07-04T07:53:30;20.01;65.12
13796;SHT30;40911;51.552;9.874;2022-07-04T07:55:52;20.59;65.52
13796;SHT30;40911;51.552;9.874;2022-07-04T07:58:13;20.73;61.63
13796;SHT30;40911;51.552;9.874;2022-07-04T08:00:36;20.80;60.45
13796;SHT30;40911;51.552;9.874;2022-07-04T08:02:58;21.34;59.85
13796;SHT30;40911;51.552;9.874;2022-07-04T08:05:37;21.44;61.30
13796;SHT30;40911;51.552;9.874;2022-07-04T08:07:59;21.50;62.51
13796;SHT30;40911;51.552;9.874;2022-07-04T08:10:20;21.35;61.22
13796;SHT30;40911;51.552;9.874;2022-07-04T08:12:42;21.89;61.69
13796;SHT30;40911;51.552;9.874;2022-07-04T08:15:04;21.04;61.92
13796;SHT30;40911;51.552;9.874;2022-07-04T08:17:28;21.50;61.96
13796;SHT30;40911;51.552;9.874;2022-07-04T08:19:49;21.40;60.49
13796;SHT30;40911;51.552;9.874;2022-07-04T08:22:11;21.42;60.13
13796;SHT30;40911;51.552;9.874;2022-07-04T08:24:32;21.26;60.89
13796;SHT30;40911;51.552;9.874;2022-07-04T08:26:54;21.55;59.83
13796;SHT30;40911;51.552;9.874;2022-07-04T08:29:15;22.16;59.53
13796;SHT30;40911;51.552;9.874;2022-07-04T08:31:37;22.16;58.46
13796;SHT30;40911;51.552;9.874;2022-07-04T08:34:00;22.55;58.73
13796;SHT30;40911;51.552;9.874;2022-07-04T08:36:21;23.23;58.85
13796;SHT30;40911;51.552;9.874;2022-07-04T08:38:43;23.33;58.75
13796;SHT30;40911;51.552;9.874;2022-07-04T08:41:04;22.84;58.28
13796;SHT30;40911;51.552;9.874;2022-07-04T08:43:26;21.76;58.48
13796;SHT30;40911;51.552;9.874;2022-07-04T08:45:49;21.59;59.81
13796;SHT30;40911;51.552;9.874;2022-07-04T08:48:13;22.19;58.56
13796;SHT30;40911;51.552;9.874;2022-07-04T08:50:38;21.90;58.84
13796;SHT30;40911;51.552;9.874;2022-07-04T08:53:02;23.67;56.82
13796;SHT30;40911;51.552;9.874;2022-07-04T08:55:28;23.19;56.50
13796;SHT30;40911;51.552;9.874;2022-07-04T08:58:07;22.38;57.23
13796;SHT30;40911;51.552;9.874;2022-07-04T09:00:50;23.37;55.80
13796;SHT30;40911;51.552;9.874;2022-07-04T09:03:12;23.44;55.81
13796;SHT30;40911;51.552;9.874;2022-07-04T09:05:35;22.38;56.38
13796;SHT30;40911;51.552;9.874;2022-07-04T09:07:57;23.62;55.54
13796;SHT30;40911;51.552;9.874;2022-07-04T09:10:19;22.48;56.50
13796;SHT30;40911;51.552;9.874;2022-07-04T09:12:41;22.14;55.96
13796;SHT30;40911;51.552;9.874;2022-07-04T09:15:03;22.27;57.00
13796;SHT30;40911;51.552;9.874;2022-07-04T09:17:25;22.57;54.82
13796;SHT30;40911;51.552;9.874;2022-07-04T09:20:15;22.37;55.15
13796;SHT30;40911;51.552;9.874;2022-07-04T09:22:38;23.26;54.53
13796;SHT30;40911;51.552;9.874;2022-07-04T09:25:04;23.07;53.58
13796;SHT30;40911;51.552;9.874;2022-07-04T09:27:30;23.30;54.37
13796;SHT30;40911;51.552;9.874;2022-07-04T09:29:52;22.14;55.50
13796;SHT30;40911;51.552;9.874;2022-07-04T09:32:24;22.28;55.52
13796;SHT30;40911;51.552;9.874;2022-07-04T09:34:53;24.16;53.59
13796;SHT30;40911;51.552;9.874;2022-07-04T09:37:15;23.44;53.68
13796;SHT30;40911;51.552;9.874;2022-07-04T09:39:38;23.85;53.09
13796;SHT30;40911;51.552;9.874;2022-07-04T09:42:01;24.13;53.31
13796;SHT30;40911;51.552;9.874;2022-07-04T09:44:24;23.65;55.20
13796;SHT30;40911;51.552;9.874;2022-07-04T09:46:46;23.58;54.87
13796;SHT30;40911;51.552;9.874;2022-07-04T09:49:10;22.72;57.70
13796;SHT30;40911;51.552;9.874;2022-07-04T09:51:39;23.02;57.45
13796;SHT30;40911;51.552;9.874;2022-07-04T09:54:12;22.51;58.60
13796;SHT30;40911;51.552;9.874;2022-07-04T09:56:46;23.05;56.99
13796;SHT30;40911;51.552;9.874;2022-07-04T09:59:08;23.77;57.05
13796;SHT30;40911;51.552;9.874;2022-07-04T10:01:29;23.46;55.22
13796;SHT30;40911;51.552;9.874;2022-07-04T10:03:51;23.70;56.42
13796;SHT30;40911;51.552;9.874;2022-07-04T10:06:13;24.68;54.69
13796;SHT30;40911;51.552;9.874;2022-07-04T10:08:36;24.02;54.29
13796;SHT30;40911;51.552;9.874;2022-07-04T10:10:59;24.25;54.30
13796;SHT30;40911;51.552;9.874;2022-07-04T10:13:22;23.41;55.60
13796;SHT30;40911;51.552;9.874;2022-07-04T10:15:44;23.46;54.87
13796;SHT30;40911;51.552;9.874;2022-07-04T10:18:07;23.94;54.38
13796;SHT30;40911;51.552;9.874;2022-07-04T10:20:29;24.37;52.61
13796;SHT30;40911;51.552;9.874;2022-07-04T10:22:50;24.71;53.85
13796;SHT30;40911;51.552;9.874;2022-07-04T10:25:12;24.02;53.52
13796;SHT30;40911;51.552;9.874;2022-07-04T10:27:34;23.62;53.86
13796;SHT30;40911;51.552;9.874;2022-07-04T10:29:57;23.80;54.04
13796;SHT30;40911;51.552;9.874;2022-07-04T10:32:20;23.62;53.96
13796;SHT30;40911;51.552;9.874;2022-07-04T10:34:41;23.11;56.16
13796;SHT30;40911;51.552;9.874;2022-07-04T10:37:03;23.88;54.43
13796;SHT30;40911;51.552;9.874;2022-07-04T10:39:27;25.25;53.40
13796;SHT30;40911;51.552;9.874;2022-07-04T10:41:56;24.37;53.24
13796;SHT30;40911;51.552;9.874;2022-07-04T10:44:21;24.50;53.25
13796;SHT30;40911;51.552;9.874;2022-07-04T10:46:48;25.00;52.72
13796;SHT30;40911;51.552;9.874;2022-07-04T10:49:19;25.35;49.01
13796;SHT30;40911;51.552;9.874;2022-07-04T10:51:42;24.91;50.14
13796;SHT30;40911;51.552;9.874;2022-07-04T10:54:08;24.71;50.99
13796;SHT30;40911;51.552;9.874;2022-07-04T10:56:45;24.66;50.99
13796;SHT30;40911;51.552;9.874;2022-07-04T10:59:08;25.01;50.97
13796;SHT30;40911;51.552;9.874;2022-07-04T11:01:30;24.93;52.05
13796;SHT30;40911;51.552;9.874;2022-07-04T11:03:54;24.16;51.87
13796;SHT30;40911;51.552;9.874;2022-07-04T11:06:51;25.32;50.68
13796;SHT30;40911;51.552;9.874;2022-07-04T11:09:15;25.52;49.96
13796;SHT30;40911;51.552;9.874;2022-07-04T11:11:50;25.19;49.17
13796;SHT30;40911;51.552;9.874;2022-07-04T11:14:37;26.22;48.35
13796;SHT30;40911;51.552;9.874;2022-07-04T11:16:59;26.14;48.20
13796;SHT30;40911;51.552;9.874;2022-07-04T11:19:23;25.90;46.07
13796;SHT30;40911;51.552;9.874;2022-07-04T11:21:44;25.52;46.83
13796;SHT30;40911;51.552;9.874;2022-07-04T11:24:07;24.95;47.82
13796;SHT30;40911;51.552;9.874;2022-07-04T11:26:30;26.39;47.31
13796;SHT30;40911;51.552;9.874;2022-07-04T11:28:51;25.94;47.01
13796;SHT30;40911;51.552;9.874;2022-07-04T11:31:13;26.42;46.51
13796;SHT30;40911;51.552;9.874;2022-07-04T11:33:35;25.47;48.04
13796;SHT30;40911;51.552;9.874;2022-07-04T11:36:03;25.56;47.61
13796;SHT30;40911;51.552;9.874;2022-07-04T11:38:25;25.53;46.89
13796;SHT30;40911;51.552;9.874;2022-07-04T11:40:46;24.87;47.94
13796;SHT30;40911;51.552;9.874;2022-07-04T11:43:25;25.39;46.03
13796;SHT30;40911;51.552;9.874;2022-07-04T11:46:10;26.14;44.88
13796;SHT30;40911;51.552;9.874;2022-07-04T11:48:31;27.08;43.86
13796;SHT30;40911;51.552;9.874;2022-07-04T11:50:54;26.59;45.04
13796;SHT30;40911;51.552;9.874;2022-07-04T11:53:18;26.74;45.05
13796;SHT30;40911;51.552;9.874;2022-07-04T11:55:51;26.93;44.25
13796;SHT30;40911;51.552;9.874;2022-07-04T11:58:13;27.17;44.61
13796;SHT30;40911;51.552;9.874;2022-07-04T12:00:35;26.97;44.47
13796;SHT30;40911;51.552;9.874;2022-07-04T12:02:59;26.66;44.33
13796;SHT30;40911;51.552;9.874;2022-07-04T12:05:21;26.93;42.15
13796;SHT30;40911;51.552;9.874;2022-07-04T12:07:44;26.32;43.42
13796;SHT30;40911;51.552;9.874;2022-07-04T12:10:09;27.24;42.93
13796;SHT30;40911;51.552;9.874;2022-07-04T12:12:30;27.24;41.74
13796;SHT30;40911;51.552;9.874;2022-07-04T12:15:00;27.34;41.80
13796;SHT30;40911;51.552;9.874;2022-07-04T12:17:22;27.94;40.78
13796;SHT30;40911;51.552;9.874;2022-07-04T12:19:54;27.55;42.25
13796;SHT30;40911;51.552;9.874;2022-07-04T12:22:34;27.03;42.33
13796;SHT30;40911;51.552;9.874;2022-07-04T12:24:56;28.18;41.03
13796;SHT30;40911;51.552;9.874;2022-07-04T12:27:19;27.83;42.29
13796;SHT30;40911;51.552;9.874;2022-07-04T12:29:46;27.90;41.08
13796;SHT30;40911;51.552;9.874;2022-07-04T12:32:07;27.61;40.31
13796;SHT30;40911;51.552;9.874;2022-07-04T12:34:35;26.90;41.25
13796;SHT30;40911;51.552;9.874;2022-07-04T12:36:57;26.73;41.20
13796;SHT30;40911;51.552;9.874;2022-07-04T12:39:29;27.83;41.60
13796;SHT30;40911;51.552;9.874;2022-07-04T12:42:03;28.07;41.04
13796;SHT30;40911;51.552;9.874;2022-07-04T12:44:26;28.44;40.22
13796;SHT30;40911;51.552;9.874;2022-07-04T12:46:55;28.30;39.46
13796;SHT30;40911;51.552;9.874;2022-07-04T12:49:17;26.65;40.28
13796;SHT30;40911;51.552;9.874;2022-07-04T12:51:39;28.82;39.65
13796;SHT30;40911;51.552;9.874;2022-07-04T12:54:07;28.28;39.49
13796;SHT30;40911;51.552;9.874;2022-07-04T12:56:30;27.30;41.97
13796;SHT30;40911;51.552;9.874;2022-07-04T12:58:52;26.97;40.83
13796;SHT30;40911;51.552;9.874;2022-07-04T13:01:15;27.08;41.85
13796;SHT30;40911;51.552;9.874;2022-07-04T13:03:36;27.25;40.03
13796;SHT30;40911;51.552;9.874;2022-07-04T13:05:58;28.47;40.97
13796;SHT30;40911;51.552;9.874;2022-07-04T13:08:19;28.06;39.46
13796;SHT30;40911;51.552;9.874;2022-07-04T13:10:41;28.34;40.28
13796;SHT30;40911;51.552;9.874;2022-07-04T13:13:03;27.32;40.42
13796;SHT30;40911;51.552;9.874;2022-07-04T13:15:24;28.20;40.72
13796;SHT30;40911;51.552;9.874;2022-07-04T13:17:47;28.05;41.15
13796;SHT30;40911;51.552;9.874;2022-07-04T13:20:09;28.14;40.17
13796;SHT30;40911;51.552;9.874;2022-07-04T13:22:32;27.73;40.40
13796;SHT30;40911;51.552;9.874;2022-07-04T13:24:54;27.79;39.91
13796;SHT30;40911;51.552;9.874;2022-07-04T13:27:17;28.21;37.90
13796;SHT30;40911;51.552;9.874;2022-07-04T13:29:39;28.47;39.46
13796;SHT30;40911;51.552;9.874;2022-07-04T13:32:03;28.91;38.65
13796;SHT30;40911;51.552;9.874;2022-07-04T13:34:26;28.13;39.35
13796;SHT30;40911;51.552;9.874;2022-07-04T13:36:47;27.80;38.92
13796;SHT30;40911;51.552;9.874;2022-07-04T13:39:12;28.07;39.51
13796;SHT30;40911;51.552;9.874;2022-07-04T13:41:34;27.22;40.14
13796;SHT30;40911;51.552;9.874;2022-07-04T13:43:56;27.31;40.87
13796;SHT30;40911;51.552;9.874;2022-07-04T13:46:17;27.79;40.74
13796;SHT30;40911;51.552;9.874;2022-07-04T13:48:39;28.31;40.08
13796;SHT30;40911;51.552;9.874;2022-07-04T13:51:02;27.70;40.76
13796;SHT30;40911;51.552;9.874;2022-07-04T13:53:24;26.84;41.76
13796;SHT30;40911;51.552;9.874;2022-07-04T13:55:46;27.20;41.93
13796;SHT30;40911;51.552;9.874;2022-07-04T13:58:08;27.89;40.77
13796;SHT30;40911;51.552;9.874;2022-07-04T14:00:29;26.69;41.97
13796;SHT30;40911;51.552;9.874;2022-07-04T14:02:51;26.04;43.07
13796;SHT30;40911;51.552;9.874;2022-07-04T14:05:12;25.96;43.89
13796;SHT30;40911;51.552;9.874;2022-07-04T14:07:35;27.01;42.96
13796;SHT30;40911;51.552;9.874;2022-07-04T14:09:57;26.34;43.47
13796;SHT30;40911;51.552;9.874;2022-07-04T14:12:19;28.27;43.19
13796;SHT30;40911;51.552;9.874;2022-07-04T14:14:41;28.02;41.66
13796;SHT30;40911;51.552;9.874;2022-07-04T14:17:03;28.33;42.73
13796;SHT30;40911;51.552;9.874;2022-07-04T14:19:24;28.55;41.29
13796;SHT30;40911;51.552;9.874;2022-07-04T14:21:46;27.96;41.80
13796;SHT30;40911;51.552;9.874;2022-07-04T14:24:10;28.95;41.94
13796;SHT30;40911;51.552;9.874;2022-07-04T14:26:31;29.55;40.87
13796;SHT30;40911;51.552;9.874;2022-07-04T14:28:53;29.67;41.37
13796;SHT30;40911;51.552;9.874;2022-07-04T14:31:14;29.75;39.98
13796;SHT30;40911;51.552;9.874;2022-07-04T14:33:36;29.62;40.76
13796;SHT30;40911;51.552;9.874;2022-07-04T14:35:58;30.19;41.17
13796;SHT30;40911;51.552;9.874;2022-07-04T14:38:20;28.95;39.77
13796;SHT30;40911;51.552;9.874;2022-07-04T14:40:43;27.55;42.36
13796;SHT30;40911;51.552;9.874;2022-07-04T14:43:06;27.45;42.91
13796;SHT30;40911;51.552;9.874;2022-07-04T14:45:28;26.66;43.91
13796;SHT30;40911;51.552;9.874;2022-07-04T14:47:50;27.78;42.16
13796;SHT30;40911;51.552;9.874;2022-07-04T14:50:12;28.92;40.56
13796;SHT30;40911;51.552;9.874;2022-07-04T14:52:33;29.44;40.61
13796;SHT30;40911;51.552;9.874;2022-07-04T14:54:56;29.27;41.07
13796;SHT30;40911;51.552;9.874;2022-07-04T14:57:19;27.73;41.63
13796;SHT30;40911;51.552;9.874;2022-07-04T14:59:40;27.61;42.48
13796;SHT30;40911;51.552;9.874;2022-07-04T15:02:03;27.18;43.04
13796;SHT30;40911;51.552;9.874;2022-07-04T15:04:24;27.27;44.72
13796;SHT30;40911;51.552;9.874;2022-07-04T15:06:47;27.37;44.18